createdAt,value
2023-03-21T00:00:31.833Z,8.59
2023-03-21T00:03:03.639Z,8.47
2023-03-21T00:05:35.304Z,8.17
2023-03-21T00:08:06.915Z,8.37
2023-03-21T00:10:43.533Z,8.71
2023-03-21T00:13:15.875Z,8.65
2023-03-21T00:18:46.619Z,8.58
2023-03-21T00:21:48.719Z,8.09
2023-03-21T00:24:12.729Z,8.64
2023-03-21T00:26:45.081Z,8.36
2023-03-21T00:29:16.886Z,8.09
2023-03-21T00:31:48.357Z,8.04
2023-03-21T00:34:26.858Z,8.51
2023-03-21T00:37:08.947Z,8.48
2023-03-21T00:39:40.511Z,8.47
2023-03-21T00:42:12.140Z,8.56
2023-03-21T00:44:44.819Z,8.35
2023-03-21T00:47:16.389Z,8.53
2023-03-21T00:49:47.777Z,8.53
2023-03-21T00:52:27.539Z,8.60
2023-03-21T00:55:15.452Z,8.28
2023-03-21T00:57:50.183Z,8.04
2023-03-21T01:00:27.751Z,8.50
2023-03-21T01:03:17.676Z,8.50
2023-03-21T01:06:04.944Z,8.47
2023-03-21T01:08:51.621Z,8.21
2023-03-21T01:11:27.025Z,8.63
2023-03-21T01:14:14.684Z,8.52
2023-03-21T01:16:52.761Z,8.16
2023-03-21T01:19:37.673Z,8.64
2023-03-21T01:22:16.130Z,8.06
2023-03-21T01:24:55.136Z,8.55
2023-03-21T01:27:28.194Z,8.53
2023-03-21T01:29:59.835Z,8.31
2023-03-21T01:32:31.541Z,8.54
2023-03-21T01:35:04.103Z,8.52
2023-03-21T01:37:35.465Z,8.59
2023-03-21T01:40:07.203Z,8.68
2023-03-21T01:42:39.515Z,8.43
2023-03-21T01:45:48.561Z,8.77
2023-03-21T01:48:21.596Z,8.69
2023-03-21T01:50:53.098Z,8.82
2023-03-21T01:53:30.049Z,8.61
2023-03-21T01:56:07.006Z,8.68
2023-03-21T01:58:40.356Z,8.71
2023-03-21T02:01:11.920Z,8.48
2023-03-21T02:03:52.555Z,8.26
2023-03-21T02:06:36.588Z,8.36
2023-03-21T02:09:12.154Z,8.59
2023-03-21T02:11:46.461Z,8.70
2023-03-21T02:14:28.332Z,8.52
2023-03-21T02:17:22.176Z,8.75
2023-03-21T02:20:09.042Z,8.90
2023-03-21T02:23:04.902Z,8.88
2023-03-21T02:26:06.680Z,8.87
2023-03-21T02:28:50.944Z,8.72
2023-03-21T02:31:28.467Z,8.73
2023-03-21T02:34:39.065Z,8.88
2023-03-21T02:37:17.950Z,8.75
2023-03-21T02:40:01.117Z,8.89
2023-03-21T02:42:48.925Z,8.84
2023-03-21T02:45:31.287Z,8.85
2023-03-21T02:48:20.219Z,8.84
2023-03-21T02:51:00.581Z,8.92
2023-03-21T02:53:36.902Z,8.52
2023-03-21T02:56:10.633Z,8.74
2023-03-21T02:58:43.146Z,8.44
2023-03-21T03:01:14.659Z,8.75
2023-03-21T03:03:47.485Z,8.64
2023-03-21T03:06:24.075Z,8.79
2023-03-21T03:09:17.878Z,8.90
2023-03-21T03:11:55.211Z,8.88
2023-03-21T03:14:56.359Z,8.93
2023-03-21T03:18:10.222Z,8.90
2023-03-21T03:20:50.711Z,8.94
2023-03-21T03:23:34.212Z,8.79
2023-03-21T03:26:12.708Z,8.90
2023-03-21T03:28:51.623Z,8.97
2023-03-21T03:31:27.433Z,8.59
2023-03-21T03:34:13.526Z,8.84
2023-03-21T03:36:51.489Z,8.91
2023-03-21T03:39:33.346Z,8.95
2023-03-21T03:42:27.464Z,8.92
2023-03-21T03:45:01.205Z,8.73
2023-03-21T03:47:56.394Z,8.91
2023-03-21T03:50:41.413Z,8.82
2023-03-21T03:53:38.049Z,8.99
2023-03-21T03:56:11.529Z,8.83
2023-03-21T03:58:45.979Z,8.89
2023-03-21T04:01:17.810Z,8.40
2023-03-21T04:03:56.263Z,8.87
2023-03-21T04:06:32.555Z,8.96
2023-03-21T04:09:18.812Z,8.56
2023-03-21T04:11:51.811Z,8.96
2023-03-21T04:14:25.566Z,9.03
2023-03-21T04:16:59.824Z,8.90
2023-03-21T04:19:31.216Z,8.62
2023-03-21T04:22:02.681Z,8.91
2023-03-21T04:24:37.626Z,8.94
2023-03-21T04:27:09.046Z,8.96
2023-03-21T04:29:40.817Z,8.86
2023-03-21T04:32:17.696Z,8.84
2023-03-21T04:34:50.005Z,8.87
2023-03-21T04:37:23.537Z,9.04
2023-03-21T04:39:54.873Z,8.91
2023-03-21T04:42:26.358Z,9.03
2023-03-21T04:44:58.069Z,9.03
2023-03-21T04:47:29.583Z,9.00
2023-03-21T04:50:00.969Z,9.03
2023-03-21T04:52:32.341Z,9.03
2023-03-21T04:55:04.228Z,8.92
2023-03-21T04:57:37.445Z,9.04
2023-03-21T05:00:10.374Z,8.95
2023-03-21T05:02:41.833Z,9.00
2023-03-21T05:05:13.551Z,9.06
2023-03-21T05:07:44.876Z,9.01
2023-03-21T05:10:16.496Z,9.10
2023-03-21T05:12:47.897Z,8.62
2023-03-21T05:15:19.343Z,8.55
2023-03-21T05:17:52.877Z,9.01
2023-03-21T05:20:25.288Z,9.06
2023-03-21T05:22:56.605Z,9.08
2023-03-21T05:25:35.800Z,9.02
2023-03-21T05:28:08.090Z,8.97
2023-03-21T05:30:39.474Z,8.99
2023-03-21T05:33:11.193Z,8.84
2023-03-21T05:35:42.520Z,9.04
2023-03-21T05:38:13.873Z,9.05
2023-03-21T05:40:50.061Z,8.70
2023-03-21T05:43:21.360Z,9.20
2023-03-21T05:45:52.944Z,9.08
2023-03-21T05:48:24.440Z,9.08
2023-03-21T05:50:55.913Z,9.17
2023-03-21T05:53:27.550Z,9.15
2023-03-21T05:55:58.880Z,9.11
2023-03-21T05:58:30.575Z,9.17
2023-03-21T06:01:02.043Z,8.85
2023-03-21T06:03:33.364Z,8.98
2023-03-21T06:06:05.161Z,9.29
2023-03-21T06:08:36.605Z,9.17
2023-03-21T06:11:37.144Z,9.32
2023-03-21T06:14:08.514Z,8.78
2023-03-21T06:16:39.970Z,9.25
2023-03-21T06:19:11.856Z,9.06
2023-03-21T06:21:43.156Z,8.90
2023-03-21T06:24:14.542Z,9.17
2023-03-21T06:26:46.339Z,9.02
2023-03-21T06:29:17.795Z,9.27
2023-03-21T06:31:49.118Z,9.28
2023-03-21T06:34:20.822Z,9.43
2023-03-21T06:36:54.638Z,9.54
2023-03-21T06:39:27.158Z,9.32
2023-03-21T06:41:59.104Z,9.56
2023-03-21T06:44:31.410Z,9.65
2023-03-21T06:47:02.879Z,9.73
2023-03-21T06:49:34.681Z,9.64
2023-03-21T06:52:06.399Z,9.80
2023-03-21T06:54:38.145Z,9.74
2023-03-21T06:57:09.557Z,9.81
2023-03-21T06:59:41.936Z,9.72
2023-03-21T07:02:13.431Z,9.75
2023-03-21T07:04:44.913Z,9.68
2023-03-21T07:07:16.475Z,9.67
2023-03-21T07:09:48.082Z,9.66
2023-03-21T07:12:20.854Z,9.55
2023-03-21T07:14:52.226Z,9.68
2023-03-21T07:17:23.772Z,9.64
2023-03-21T07:19:55.331Z,9.61
2023-03-21T07:22:27.656Z,9.65
2023-03-21T07:25:05.163Z,9.68
2023-03-21T07:27:39.116Z,9.15
2023-03-21T07:30:12.157Z,9.67
2023-03-21T07:32:45.504Z,9.36
2023-03-21T07:35:18.324Z,9.51
2023-03-21T07:37:49.723Z,9.73
2023-03-21T07:40:21.138Z,9.34
2023-03-21T07:42:52.742Z,9.86
2023-03-21T07:45:26.832Z,9.58
2023-03-21T07:47:58.177Z,9.57
2023-03-21T07:50:29.948Z,9.91
2023-03-21T07:53:01.701Z,9.58
2023-03-21T07:55:36.045Z,10.10
2023-03-21T07:58:08.620Z,9.70
2023-03-21T08:00:40.060Z,10.18
2023-03-21T08:03:12.064Z,10.25
2023-03-21T08:05:44.283Z,9.78
2023-03-21T08:08:15.764Z,10.15
2023-03-21T08:10:49.143Z,10.14
2023-03-21T08:13:20.761Z,10.16
2023-03-21T08:15:52.073Z,10.19
2023-03-21T08:18:23.488Z,10.22
2023-03-21T08:20:56.920Z,10.29
2023-03-21T08:23:28.317Z,10.17
2023-03-21T08:25:59.799Z,10.27
2023-03-21T08:28:31.312Z,10.33
2023-03-21T08:31:10.625Z,10.09
2023-03-21T08:33:42.153Z,10.31
2023-03-21T08:36:13.748Z,10.45
2023-03-21T08:38:46.230Z,10.35
2023-03-21T08:41:19.436Z,10.42
2023-03-21T08:43:51.024Z,10.13
2023-03-21T08:46:22.434Z,10.46
2023-03-21T08:48:54.515Z,10.87
2023-03-21T08:51:26.938Z,10.86
2023-03-21T08:53:58.276Z,10.86
2023-03-21T08:56:29.702Z,10.96
2023-03-21T08:59:02.922Z,10.59
2023-03-21T09:01:34.401Z,10.95
2023-03-21T09:04:08.187Z,11.08
2023-03-21T09:06:49.583Z,11.05
2023-03-21T09:09:23.095Z,10.52
2023-03-21T09:11:55.201Z,10.93
2023-03-21T09:14:28.940Z,11.02
2023-03-21T09:17:01.443Z,10.87
2023-03-21T09:19:33.131Z,10.66
2023-03-21T09:22:06.002Z,10.62
2023-03-21T09:24:38.054Z,11.16
2023-03-21T09:27:10.534Z,10.86
2023-03-21T09:29:44.651Z,11.29
2023-03-21T09:32:18.098Z,11.28
2023-03-21T09:34:49.787Z,11.30
2023-03-21T09:37:21.152Z,11.28
2023-03-21T09:39:52.636Z,10.86
2023-03-21T09:42:57.782Z,11.00
2023-03-21T09:45:40.899Z,11.22
2023-03-21T09:48:47.046Z,11.23
2023-03-21T09:51:31.212Z,10.79
2023-03-21T09:54:08.691Z,11.17
2023-03-21T09:56:43.042Z,11.10
2023-03-21T09:59:22.879Z,11.29
2023-03-21T10:01:55.385Z,11.34
2023-03-21T10:04:27.588Z,11.18
2023-03-21T10:07:02.154Z,11.41
2023-03-21T10:09:38.496Z,11.37
2023-03-21T10:12:20.775Z,11.21
2023-03-21T10:14:58.013Z,11.21
2023-03-21T10:17:33.833Z,11.37
2023-03-21T10:20:16.714Z,11.52
2023-03-21T10:22:51.041Z,11.37
2023-03-21T10:25:30.281Z,10.97
2023-03-21T10:28:03.465Z,11.28
2023-03-21T10:30:52.386Z,11.14
2023-03-21T10:33:27.582Z,11.20
2023-03-21T10:36:02.217Z,11.24
2023-03-21T10:38:35.643Z,11.18
2023-03-21T10:41:07.260Z,11.38
2023-03-21T10:43:42.067Z,11.47
2023-03-21T10:46:21.155Z,11.31
2023-03-21T10:48:53.905Z,11.42
2023-03-21T10:51:32.556Z,11.13
2023-03-21T10:54:08.553Z,11.15
2023-03-21T10:57:15.074Z,11.50
2023-03-21T10:59:59.802Z,11.60
2023-03-21T11:02:34.929Z,11.28
2023-03-21T11:05:18.768Z,11.31
2023-03-21T11:08:06.983Z,11.72
2023-03-21T11:11:08.420Z,11.91
2023-03-21T11:13:42.748Z,11.83
2023-03-21T11:16:27.356Z,11.98
2023-03-21T11:19:12.314Z,12.05
2023-03-21T11:21:44.495Z,12.55
2023-03-21T11:24:18.822Z,12.66
2023-03-21T11:26:51.291Z,12.68
2023-03-21T11:29:47.382Z,13.16
2023-03-21T11:32:26.582Z,12.91
2023-03-21T11:35:22.311Z,13.04
2023-03-21T11:37:56.338Z,12.78
2023-03-21T11:40:36.429Z,12.83
2023-03-21T11:43:16.969Z,13.15
2023-03-21T11:46:06.097Z,12.58
2023-03-21T11:48:46.940Z,12.94
2023-03-21T11:51:27.347Z,12.86
2023-03-21T11:54:35.754Z,13.07
2023-03-21T11:58:00.156Z,13.01
2023-03-21T12:00:54.779Z,12.99
2023-03-21T12:04:03.173Z,13.01
2023-03-21T12:06:45.638Z,12.57
2023-03-21T12:09:29.472Z,12.80
2023-03-21T12:12:11.825Z,12.75
2023-03-21T12:15:22.191Z,12.20
2023-03-21T12:18:34.594Z,12.64
2023-03-21T12:21:09.264Z,12.43
2023-03-21T12:24:17.862Z,12.33
2023-03-21T12:27:11.196Z,12.26
2023-03-21T12:30:13.427Z,12.34
2023-03-21T12:33:07.659Z,12.41
2023-03-21T12:36:00.880Z,12.51
2023-03-21T12:38:57.070Z,12.44
2023-03-21T12:41:54.260Z,12.50
2023-03-21T12:44:29.828Z,12.51
2023-03-21T12:47:07.499Z,12.47
2023-03-21T12:49:44.178Z,12.64
2023-03-21T12:52:18.133Z,12.57
2023-03-21T12:54:55.004Z,12.33
2023-03-21T12:57:32.549Z,12.24
2023-03-21T13:00:13.478Z,11.94
2023-03-21T13:02:54.610Z,11.69
2023-03-21T13:05:35.633Z,12.11
2023-03-21T13:08:16.161Z,12.14
2023-03-21T13:10:47.584Z,12.17
2023-03-21T13:13:37.431Z,12.37
2023-03-21T13:16:30.818Z,12.54
2023-03-21T13:19:16.250Z,12.48
2023-03-21T13:22:10.232Z,12.64
2023-03-21T13:24:47.137Z,12.14
2023-03-21T13:27:21.490Z,12.34
2023-03-21T13:29:59.934Z,12.46
2023-03-21T13:32:45.393Z,12.04
2023-03-21T13:35:27.724Z,12.52
2023-03-21T13:38:05.738Z,12.57
2023-03-21T13:40:50.470Z,12.50
2023-03-21T13:43:42.077Z,12.34
2023-03-21T13:46:25.517Z,12.49
2023-03-21T13:49:10.563Z,12.47
2023-03-21T13:51:53.111Z,12.36
2023-03-21T13:54:34.204Z,12.00
2023-03-21T13:57:06.828Z,12.24
2023-03-21T13:59:38.605Z,12.50
2023-03-21T14:02:13.037Z,12.42
2023-03-21T14:05:03.743Z,12.16
2023-03-21T14:07:42.375Z,12.06
2023-03-21T14:10:20.422Z,12.04
2023-03-21T14:12:53.018Z,11.94
2023-03-21T14:15:30.999Z,12.07
2023-03-21T14:18:15.811Z,11.91
2023-03-21T14:20:58.357Z,11.73
2023-03-21T14:23:29.753Z,11.98
2023-03-21T14:26:01.066Z,11.98
2023-03-21T14:28:33.358Z,11.74
2023-03-21T14:31:04.842Z,11.91
2023-03-21T14:33:41.480Z,11.74
2023-03-21T14:36:20.822Z,11.98
2023-03-21T14:39:07.113Z,11.83
2023-03-21T14:41:52.065Z,11.60
2023-03-21T14:44:54.982Z,12.00
2023-03-21T14:47:29.294Z,11.55
2023-03-21T14:50:03.497Z,11.89
2023-03-21T14:52:35.169Z,11.95
2023-03-21T14:55:15.461Z,11.75
2023-03-21T14:57:48.341Z,11.61
2023-03-21T15:00:29.119Z,11.36
2023-03-21T15:03:01.145Z,11.48
2023-03-21T15:05:37.230Z,11.29
2023-03-21T15:08:15.416Z,11.10
2023-03-21T15:11:07.155Z,11.61
2023-03-21T15:13:54.613Z,11.51
2023-03-21T15:16:26.098Z,11.18
2023-03-21T15:18:59.011Z,11.44
2023-03-21T15:21:36.569Z,11.32
2023-03-21T15:24:23.540Z,11.54
2023-03-21T15:27:00.659Z,11.61
2023-03-21T15:29:34.297Z,11.32
2023-03-21T15:32:12.784Z,11.50
2023-03-21T15:34:45.352Z,11.01
2023-03-21T15:37:23.028Z,11.44
2023-03-21T15:40:06.458Z,11.27
2023-03-21T15:42:40.737Z,11.42
2023-03-21T15:45:26.585Z,11.10
2023-03-21T15:48:13.008Z,11.34
2023-03-21T15:50:56.642Z,11.25
2023-03-21T15:53:32.622Z,10.83
2023-03-21T15:56:05.999Z,11.21
2023-03-21T15:58:42.717Z,10.84
2023-03-21T16:01:22.344Z,11.22
2023-03-21T16:04:02.034Z,10.93
2023-03-21T16:06:35.605Z,11.28
2023-03-21T16:09:22.083Z,11.24
2023-03-21T16:11:59.008Z,11.31
2023-03-21T16:14:30.463Z,11.20
2023-03-21T16:17:01.804Z,10.84
2023-03-21T16:19:33.099Z,10.83
2023-03-21T16:22:09.771Z,10.93
2023-03-21T16:24:41.082Z,11.06
2023-03-21T16:27:12.873Z,10.91
2023-03-21T16:29:44.182Z,11.20
2023-03-21T16:32:17.864Z,10.68
2023-03-21T16:34:49.276Z,11.08
2023-03-21T16:37:21.496Z,10.71
2023-03-21T16:39:53.014Z,11.05
2023-03-21T16:42:24.419Z,11.02
2023-03-21T16:44:56.041Z,11.14
2023-03-21T16:47:27.346Z,10.71
2023-03-21T16:49:58.662Z,10.59
2023-03-21T16:52:30.176Z,10.80
2023-03-21T16:55:01.492Z,11.03
2023-03-21T16:57:32.790Z,10.99
2023-03-21T17:00:07.320Z,10.97
2023-03-21T17:02:38.713Z,10.51
2023-03-21T17:05:11.481Z,10.99
2023-03-21T17:07:44.015Z,10.99
2023-03-21T17:10:25.146Z,10.73
2023-03-21T17:12:56.536Z,10.43
2023-03-21T17:15:27.886Z,10.88
2023-03-21T17:17:59.225Z,10.88
2023-03-21T17:20:33.219Z,10.95
2023-03-21T17:23:04.936Z,10.88
2023-03-21T17:25:36.271Z,10.95
2023-03-21T17:28:07.602Z,10.73
2023-03-21T17:30:39.943Z,10.92
2023-03-21T17:33:11.700Z,10.78
2023-03-21T17:35:43.173Z,10.79
2023-03-21T17:38:17.214Z,10.86
2023-03-21T17:40:50.465Z,10.72
2023-03-21T17:43:23.233Z,10.43
2023-03-21T17:45:54.515Z,10.71
2023-03-21T17:48:25.924Z,10.33
2023-03-21T17:50:57.366Z,10.10
2023-03-21T17:53:28.718Z,10.06
2023-03-21T17:56:00.489Z,10.17
2023-03-21T17:58:31.868Z,10.44
2023-03-21T18:01:03.463Z,10.33
2023-03-21T18:03:34.902Z,10.31
2023-03-21T18:06:12.563Z,10.22
2023-03-21T18:08:44.837Z,10.22
2023-03-21T18:11:17.724Z,10.26
2023-03-21T18:13:50.543Z,10.14
2023-03-21T18:16:24.332Z,9.60
2023-03-21T18:18:56.697Z,9.84
2023-03-21T18:21:32.212Z,10.00
2023-03-21T18:24:04.373Z,10.02
2023-03-21T18:26:35.749Z,9.55
2023-03-21T18:30:13.239Z,9.44
2023-03-21T18:32:06.369Z,9.59
2023-03-21T18:34:40.285Z,9.74
2023-03-21T18:37:13.428Z,9.49
2023-03-21T18:39:45.504Z,9.20
2023-03-21T18:42:20.400Z,9.44
2023-03-21T18:44:54.311Z,9.25
2023-03-21T18:47:25.959Z,9.06
2023-03-21T18:50:13.234Z,9.06
2023-03-21T18:52:45.829Z,9.23
2023-03-21T18:55:18.625Z,9.00
2023-03-21T18:57:51.961Z,9.60
2023-03-21T19:00:25.535Z,9.14
2023-03-21T19:03:13.066Z,9.59
2023-03-21T19:05:48.894Z,9.25
2023-03-21T19:08:20.364Z,9.61
2023-03-21T19:10:52.160Z,9.66
2023-03-21T19:13:23.504Z,9.75
2023-03-21T19:15:56.157Z,9.82
2023-03-21T19:18:57.087Z,9.79
2023-03-21T19:21:19.748Z,9.97
2023-03-21T19:26:42.737Z,9.95
2023-03-21T19:29:15.476Z,10.04
2023-03-21T19:31:47.180Z,9.78
2023-03-21T19:34:18.822Z,9.96
2023-03-21T19:36:51.872Z,9.85
2023-03-21T19:39:25.261Z,10.12
2023-03-21T19:42:14.825Z,9.83
2023-03-21T19:44:47.201Z,9.84
2023-03-21T19:47:20.686Z,9.91
2023-03-21T19:52:46.038Z,10.21
2023-03-21T19:55:17.805Z,10.22
2023-03-21T19:57:49.269Z,10.04
2023-03-21T20:00:21.246Z,10.07
2023-03-21T20:02:52.672Z,10.30
2023-03-21T20:05:25.553Z,10.09
2023-03-21T20:08:01.048Z,10.43
2023-03-21T20:10:32.546Z,9.94
2023-03-21T20:13:03.842Z,10.31
2023-03-21T20:15:45.849Z,10.36
2023-03-21T20:18:20.538Z,9.96
2023-03-21T20:20:53.252Z,10.38
2023-03-21T20:23:24.745Z,10.36
2023-03-21T20:25:56.036Z,9.94
2023-03-21T20:28:28.959Z,10.34
2023-03-21T20:31:01.914Z,10.41
2023-03-21T20:33:33.869Z,10.41
2023-03-21T20:36:37.702Z,10.39
2023-03-21T20:38:58.751Z,9.97
2023-03-21T20:41:30.372Z,10.00
2023-03-21T20:46:53.411Z,10.23
2023-03-21T20:49:26.083Z,10.45
2023-03-21T20:54:49.297Z,10.39
2023-03-21T20:57:21.020Z,10.40
2023-03-21T20:59:57.506Z,10.41
2023-03-21T21:02:28.982Z,10.40
2023-03-21T21:07:51.685Z,10.18
2023-03-21T21:10:23.312Z,10.39
2023-03-21T21:12:54.610Z,10.42
2023-03-21T21:15:26.290Z,10.31
2023-03-21T21:18:06.067Z,10.34
2023-03-21T21:20:39.377Z,10.29
2023-03-21T21:23:10.944Z,9.86
2023-03-21T21:25:42.238Z,9.88
2023-03-21T21:28:14.295Z,10.28
2023-03-21T21:30:45.615Z,9.97
2023-03-21T21:33:20.987Z,10.23
2023-03-21T21:35:54.637Z,10.18
2023-03-21T21:38:26.527Z,10.13
2023-03-21T21:40:59.348Z,10.14
2023-03-21T21:43:30.906Z,9.88
2023-03-21T21:46:02.378Z,10.13
2023-03-21T21:48:34.199Z,10.23
2023-03-21T21:51:05.963Z,10.15
2023-03-21T21:53:38.767Z,10.17
2023-03-21T21:56:10.476Z,10.11
2023-03-21T21:58:47.542Z,9.79
2023-03-21T22:01:22.640Z,10.10
2023-03-21T22:03:57.459Z,9.90
2023-03-21T22:06:28.751Z,10.09
2023-03-21T22:09:00.921Z,10.03
2023-03-21T22:11:33.001Z,9.68
2023-03-21T22:14:04.374Z,9.94
2023-03-21T22:16:35.854Z,9.43
2023-03-21T22:19:07.253Z,9.65
2023-03-21T22:21:38.548Z,9.28
2023-03-21T22:24:09.960Z,9.57
2023-03-21T22:26:41.415Z,9.56
2023-03-21T22:29:12.816Z,9.26
2023-03-21T22:31:44.539Z,9.09
2023-03-21T22:34:15.994Z,9.48
2023-03-21T22:36:47.330Z,9.46
2023-03-21T22:39:20.134Z,9.26
2023-03-21T22:41:57.805Z,8.68
2023-03-21T22:44:34.877Z,8.98
2023-03-21T22:47:08.973Z,8.55
2023-03-21T22:49:42.531Z,8.69
2023-03-21T22:52:14.177Z,8.57
2023-03-21T22:54:46.535Z,8.60
2023-03-21T22:57:20.582Z,8.61
2023-03-21T22:59:52.117Z,8.05
2023-03-21T23:02:23.504Z,8.14
2023-03-21T23:04:54.808Z,8.54
2023-03-21T23:07:26.128Z,8.25
2023-03-21T23:09:57.441Z,8.54
2023-03-21T23:12:28.813Z,8.01
2023-03-21T23:15:02.191Z,8.03
2023-03-21T23:17:34.170Z,8.23
2023-03-21T23:20:07.089Z,7.96
2023-03-21T23:22:38.455Z,8.05
2023-03-21T23:25:09.871Z,8.18
2023-03-21T23:27:41.621Z,8.26
2023-03-21T23:30:13.005Z,8.51
2023-03-21T23:32:44.343Z,8.55
2023-03-21T23:35:16.204Z,8.56
2023-03-21T23:37:51.881Z,8.61
2023-03-21T23:40:23.485Z,8.61
2023-03-21T23:42:54.817Z,8.41
2023-03-21T23:45:26.258Z,8.52
2023-03-21T23:47:57.869Z,8.33
2023-03-21T23:50:29.343Z,8.35
2023-03-21T23:53:00.670Z,8.15
2023-03-21T23:55:32.007Z,8.19
2023-03-21T23:58:04.195Z,8.12
